sensor_id;sensor_type;location;lat;lon;timestamp;P1;durP1;ratioP1;P2;durP2;ratioP2
39022;SDS011;25908;51.984;5.928;2023-04-06T00:00:48;12.75;;;7.57;;
39022;SDS011;25908;51.984;5.928;2023-04-06T00:03:14;12.82;;;7.18;;
39022;SDS011;25908;51.984;5.928;2023-04-06T00:05:40;10.85;;;6.13;;
39022;SDS011;25908;51.984;5.928;2023-04-06T00:08:06;12.43;;;7.28;;
39022;SDS011;25908;51.984;5.928;2023-04-06T00:10:32;12.93;;;7.10;;
39022;SDS011;25908;51.984;5.928;2023-04-06T00:12:58;11.48;;;7.07;;
39022;SDS011;25908;51.984;5.928;2023-04-06T00:15:24;10.95;;;7.15;;
39022;SDS011;25908;51.984;5.928;2023-04-06T00:17:50;11.90;;;7.15;;
39022;SDS011;25908;51.984;5.928;2023-04-06T00:20:15;12.20;;;7.43;;
39022;SDS011;25908;51.984;5.928;2023-04-06T00:22:41;12.55;;;6.90;;
39022;SDS011;25908;51.984;5.928;2023-04-06T00:25:08;13.75;;;7.63;;
39022;SDS011;25908;51.984;5.928;2023-04-06T00:27:35;12.27;;;7.60;;
39022;SDS011;25908;51.984;5.928;2023-04-06T00:30:01;11.60;;;7.70;;
39022;SDS011;25908;51.984;5.928;2023-04-06T00:32:28;11.27;;;7.40;;
39022;SDS011;25908;51.984;5.928;2023-04-06T00:34:53;11.52;;;7.45;;
39022;SDS011;25908;51.984;5.928;2023-04-06T00:37:19;11.77;;;7.75;;
39022;SDS011;25908;51.984;5.928;2023-04-06T00:39:45;12.88;;;7.38;;
39022;SDS011;25908;51.984;5.928;2023-04-06T00:42:11;10.63;;;7.45;;
39022;SDS011;25908;51.984;5.928;2023-04-06T00:44:38;15.13;;;7.53;;
39022;SDS011;25908;51.984;5.928;2023-04-06T00:47:04;12.73;;;7.53;;
39022;SDS011;25908;51.984;5.928;2023-04-06T00:49:31;15.50;;;7.75;;
39022;SDS011;25908;51.984;5.928;2023-04-06T00:51:57;11.88;;;7.70;;
39022;SDS011;25908;51.984;5.928;2023-04-06T00:54:23;11.98;;;7.07;;
39022;SDS011;25908;51.984;5.928;2023-04-06T00:56:48;11.88;;;7.13;;
39022;SDS011;25908;51.984;5.928;2023-04-06T00:59:14;14.82;;;8.20;;
39022;SDS011;25908;51.984;5.928;2023-04-06T01:01:40;12.55;;;7.57;;
39022;SDS011;25908;51.984;5.928;2023-04-06T01:04:06;13.27;;;7.32;;
39022;SDS011;25908;51.984;5.928;2023-04-06T01:06:31;13.88;;;8.18;;
39022;SDS011;25908;51.984;5.928;2023-04-06T01:08:57;11.05;;;7.45;;
39022;SDS011;25908;51.984;5.928;2023-04-06T01:11:23;11.70;;;7.28;;
39022;SDS011;25908;51.984;5.928;2023-04-06T01:13:48;11.63;;;8.05;;
39022;SDS011;25908;51.984;5.928;2023-04-06T01:16:14;13.52;;;8.60;;
39022;SDS011;25908;51.984;5.928;2023-04-06T01:18:40;15.27;;;8.25;;
39022;SDS011;25908;51.984;5.928;2023-04-06T01:21:07;12.27;;;8.48;;
39022;SDS011;25908;51.984;5.928;2023-04-06T01:23:33;10.68;;;6.65;;
39022;SDS011;25908;51.984;5.928;2023-04-06T01:25:59;10.85;;;7.93;;
39022;SDS011;25908;51.984;5.928;2023-04-06T01:28:25;11.73;;;7.47;;
39022;SDS011;25908;51.984;5.928;2023-04-06T01:30:50;11.68;;;7.85;;
39022;SDS011;25908;51.984;5.928;2023-04-06T01:33:16;13.70;;;8.07;;
39022;SDS011;25908;51.984;5.928;2023-04-06T01:35:42;12.93;;;7.07;;
39022;SDS011;25908;51.984;5.928;2023-04-06T01:38:07;14.57;;;6.90;;
39022;SDS011;25908;51.984;5.928;2023-04-06T01:40:33;12.57;;;8.02;;
39022;SDS011;25908;51.984;5.928;2023-04-06T01:42:58;11.90;;;7.50;;
39022;SDS011;25908;51.984;5.928;2023-04-06T01:45:24;12.57;;;7.82;;
39022;SDS011;25908;51.984;5.928;2023-04-06T01:47:50;13.82;;;8.13;;
39022;SDS011;25908;51.984;5.928;2023-04-06T01:50:15;11.88;;;7.38;;
39022;SDS011;25908;51.984;5.928;2023-04-06T01:52:41;13.68;;;8.63;;
39022;SDS011;25908;51.984;5.928;2023-04-06T01:55:06;12.68;;;7.97;;
39022;SDS011;25908;51.984;5.928;2023-04-06T01:57:32;12.85;;;7.88;;
39022;SDS011;25908;51.984;5.928;2023-04-06T01:59:58;13.55;;;7.60;;
39022;SDS011;25908;51.984;5.928;2023-04-06T02:02:24;12.40;;;7.57;;
39022;SDS011;25908;51.984;5.928;2023-04-06T02:04:49;13.57;;;8.23;;
39022;SDS011;25908;51.984;5.928;2023-04-06T02:07:15;11.68;;;7.63;;
39022;SDS011;25908;51.984;5.928;2023-04-06T02:09:41;11.30;;;7.70;;
39022;SDS011;25908;51.984;5.928;2023-04-06T02:12:06;11.43;;;7.60;;
39022;SDS011;25908;51.984;5.928;2023-04-06T02:14:32;12.50;;;8.38;;
39022;SDS011;25908;51.984;5.928;2023-04-06T02:16:58;13.55;;;8.00;;
39022;SDS011;25908;51.984;5.928;2023-04-06T02:19:23;13.18;;;8.07;;
39022;SDS011;25908;51.984;5.928;2023-04-06T02:21:49;11.30;;;7.93;;
39022;SDS011;25908;51.984;5.928;2023-04-06T02:24:15;12.60;;;7.63;;
39022;SDS011;25908;51.984;5.928;2023-04-06T02:26:41;12.02;;;7.78;;
39022;SDS011;25908;51.984;5.928;2023-04-06T02:29:06;13.40;;;8.50;;
39022;SDS011;25908;51.984;5.928;2023-04-06T02:31:32;12.27;;;7.85;;
39022;SDS011;25908;51.984;5.928;2023-04-06T02:33:57;12.57;;;7.72;;
39022;SDS011;25908;51.984;5.928;2023-04-06T02:36:23;11.85;;;8.02;;
39022;SDS011;25908;51.984;5.928;2023-04-06T02:38:48;14.48;;;7.97;;
39022;SDS011;25908;51.984;5.928;2023-04-06T02:41:14;13.95;;;8.65;;
39022;SDS011;25908;51.984;5.928;2023-04-06T02:43:40;14.57;;;7.95;;
39022;SDS011;25908;51.984;5.928;2023-04-06T02:46:05;13.73;;;8.30;;
39022;SDS011;25908;51.984;5.928;2023-04-06T02:48:31;13.55;;;8.23;;
39022;SDS011;25908;51.984;5.928;2023-04-06T02:50:56;13.15;;;7.85;;
39022;SDS011;25908;51.984;5.928;2023-04-06T02:53:22;13.18;;;7.80;;
39022;SDS011;25908;51.984;5.928;2023-04-06T02:55:47;13.75;;;8.70;;
39022;SDS011;25908;51.984;5.928;2023-04-06T02:58:13;14.93;;;8.30;;
39022;SDS011;25908;51.984;5.928;2023-04-06T03:00:39;12.65;;;8.18;;
39022;SDS011;25908;51.984;5.928;2023-04-06T03:03:04;11.35;;;7.72;;
39022;SDS011;25908;51.984;5.928;2023-04-06T03:05:30;12.95;;;8.40;;
39022;SDS011;25908;51.984;5.928;2023-04-06T03:07:56;13.40;;;8.18;;
39022;SDS011;25908;51.984;5.928;2023-04-06T03:10:21;13.23;;;8.73;;
39022;SDS011;25908;51.984;5.928;2023-04-06T03:12:47;13.68;;;8.70;;
39022;SDS011;25908;51.984;5.928;2023-04-06T03:15:12;14.20;;;8.25;;
39022;SDS011;25908;51.984;5.928;2023-04-06T03:17:38;13.35;;;8.50;;
39022;SDS011;25908;51.984;5.928;2023-04-06T03:20:04;15.40;;;8.18;;
39022;SDS011;25908;51.984;5.928;2023-04-06T03:22:30;17.10;;;9.18;;
39022;SDS011;25908;51.984;5.928;2023-04-06T03:24:55;13.80;;;8.65;;
39022;SDS011;25908;51.984;5.928;2023-04-06T03:27:21;16.08;;;9.57;;
39022;SDS011;25908;51.984;5.928;2023-04-06T03:29:46;13.95;;;8.77;;
39022;SDS011;25908;51.984;5.928;2023-04-06T03:32:12;14.13;;;9.13;;
39022;SDS011;25908;51.984;5.928;2023-04-06T03:34:38;16.73;;;9.57;;
39022;SDS011;25908;51.984;5.928;2023-04-06T03:37:04;12.27;;;8.35;;
39022;SDS011;25908;51.984;5.928;2023-04-06T03:39:30;13.02;;;9.30;;
39022;SDS011;25908;51.984;5.928;2023-04-06T03:41:55;14.10;;;8.43;;
39022;SDS011;25908;51.984;5.928;2023-04-06T03:44:21;12.77;;;8.30;;
39022;SDS011;25908;51.984;5.928;2023-04-06T03:46:46;14.35;;;8.77;;
39022;SDS011;25908;51.984;5.928;2023-04-06T03:49:12;16.20;;;9.48;;
39022;SDS011;25908;51.984;5.928;2023-04-06T03:51:38;13.43;;;8.88;;
39022;SDS011;25908;51.984;5.928;2023-04-06T03:54:03;14.15;;;9.15;;
39022;SDS011;25908;51.984;5.928;2023-04-06T03:56:29;14.00;;;9.32;;
39022;SDS011;25908;51.984;5.928;2023-04-06T03:58:55;16.08;;;9.50;;
39022;SDS011;25908;51.984;5.928;2023-04-06T04:01:20;14.75;;;9.02;;
39022;SDS011;25908;51.984;5.928;2023-04-06T04:03:46;14.07;;;9.07;;
39022;SDS011;25908;51.984;5.928;2023-04-06T04:06:12;13.48;;;8.95;;
39022;SDS011;25908;51.984;5.928;2023-04-06T04:08:37;14.57;;;9.25;;
39022;SDS011;25908;51.984;5.928;2023-04-06T04:11:03;15.18;;;9.15;;
39022;SDS011;25908;51.984;5.928;2023-04-06T04:13:29;15.50;;;8.88;;
39022;SDS011;25908;51.984;5.928;2023-04-06T04:15:55;14.80;;;9.38;;
39022;SDS011;25908;51.984;5.928;2023-04-06T04:18:20;15.75;;;9.52;;
39022;SDS011;25908;51.984;5.928;2023-04-06T04:20:46;14.32;;;9.60;;
39022;SDS011;25908;51.984;5.928;2023-04-06T04:23:11;12.50;;;8.68;;
39022;SDS011;25908;51.984;5.928;2023-04-06T04:25:37;14.52;;;8.85;;
39022;SDS011;25908;51.984;5.928;2023-04-06T04:28:02;15.00;;;9.43;;
39022;SDS011;25908;51.984;5.928;2023-04-06T04:30:28;14.60;;;10.20;;
39022;SDS011;25908;51.984;5.928;2023-04-06T04:32:54;12.50;;;8.75;;
39022;SDS011;25908;51.984;5.928;2023-04-06T04:35:19;17.35;;;11.43;;
39022;SDS011;25908;51.984;5.928;2023-04-06T04:37:45;15.20;;;9.43;;
39022;SDS011;25908;51.984;5.928;2023-04-06T04:40:10;15.77;;;9.80;;
39022;SDS011;25908;51.984;5.928;2023-04-06T04:42:36;16.30;;;10.07;;
39022;SDS011;25908;51.984;5.928;2023-04-06T04:45:02;14.50;;;9.20;;
39022;SDS011;25908;51.984;5.928;2023-04-06T04:47:28;19.17;;;11.13;;
39022;SDS011;25908;51.984;5.928;2023-04-06T04:49:53;16.95;;;9.90;;
39022;SDS011;25908;51.984;5.928;2023-04-06T04:52:19;14.90;;;9.43;;
39022;SDS011;25908;51.984;5.928;2023-04-06T04:54:44;15.05;;;9.65;;
39022;SDS011;25908;51.984;5.928;2023-04-06T04:57:12;15.35;;;10.45;;
39022;SDS011;25908;51.984;5.928;2023-04-06T04:59:37;15.13;;;9.32;;
39022;SDS011;25908;51.984;5.928;2023-04-06T05:02:03;15.82;;;9.27;;
39022;SDS011;25908;51.984;5.928;2023-04-06T05:04:28;15.43;;;10.05;;
39022;SDS011;25908;51.984;5.928;2023-04-06T05:07:07;17.42;;;11.00;;
39022;SDS011;25908;51.984;5.928;2023-04-06T05:09:34;14.07;;;9.98;;
39022;SDS011;25908;51.984;5.928;2023-04-06T05:11:59;15.35;;;9.98;;
39022;SDS011;25908;51.984;5.928;2023-04-06T05:14:26;16.35;;;10.60;;
39022;SDS011;25908;51.984;5.928;2023-04-06T05:16:52;14.25;;;9.60;;
39022;SDS011;25908;51.984;5.928;2023-04-06T05:19:17;16.42;;;9.95;;
39022;SDS011;25908;51.984;5.928;2023-04-06T05:21:43;17.48;;;10.00;;
39022;SDS011;25908;51.984;5.928;2023-04-06T05:24:08;14.88;;;10.02;;
39022;SDS011;25908;51.984;5.928;2023-04-06T05:26:34;17.67;;;10.70;;
39022;SDS011;25908;51.984;5.928;2023-04-06T05:29:00;15.95;;;9.57;;
39022;SDS011;25908;51.984;5.928;2023-04-06T05:31:26;16.45;;;10.60;;
39022;SDS011;25908;51.984;5.928;2023-04-06T05:33:51;16.08;;;10.73;;
39022;SDS011;25908;51.984;5.928;2023-04-06T05:36:17;16.38;;;10.73;;
39022;SDS011;25908;51.984;5.928;2023-04-06T05:38:43;15.15;;;10.05;;
39022;SDS011;25908;51.984;5.928;2023-04-06T05:41:08;16.85;;;10.27;;
39022;SDS011;25908;51.984;5.928;2023-04-06T05:43:34;17.48;;;11.55;;
39022;SDS011;25908;51.984;5.928;2023-04-06T05:46:00;15.57;;;10.15;;
39022;SDS011;25908;51.984;5.928;2023-04-06T05:48:25;16.73;;;10.68;;
39022;SDS011;25908;51.984;5.928;2023-04-06T05:50:51;17.52;;;10.27;;
39022;SDS011;25908;51.984;5.928;2023-04-06T05:53:16;15.95;;;10.50;;
39022;SDS011;25908;51.984;5.928;2023-04-06T05:55:42;17.02;;;10.90;;
39022;SDS011;25908;51.984;5.928;2023-04-06T05:58:08;15.52;;;10.98;;
39022;SDS011;25908;51.984;5.928;2023-04-06T06:00:34;16.90;;;11.65;;
39022;SDS011;25908;51.984;5.928;2023-04-06T06:02:59;20.83;;;11.30;;
39022;SDS011;25908;51.984;5.928;2023-04-06T06:05:25;17.52;;;11.27;;
39022;SDS011;25908;51.984;5.928;2023-04-06T06:07:51;21.17;;;11.50;;
39022;SDS011;25908;51.984;5.928;2023-04-06T06:10:17;18.30;;;12.20;;
39022;SDS011;25908;51.984;5.928;2023-04-06T06:12:42;17.85;;;11.60;;
39022;SDS011;25908;51.984;5.928;2023-04-06T06:15:08;18.40;;;11.38;;
39022;SDS011;25908;51.984;5.928;2023-04-06T06:17:34;16.92;;;10.90;;
39022;SDS011;25908;51.984;5.928;2023-04-06T06:19:59;20.08;;;12.48;;
39022;SDS011;25908;51.984;5.928;2023-04-06T06:22:25;17.13;;;11.32;;
39022;SDS011;25908;51.984;5.928;2023-04-06T06:24:50;18.13;;;11.68;;
39022;SDS011;25908;51.984;5.928;2023-04-06T06:27:16;17.90;;;12.00;;
39022;SDS011;25908;51.984;5.928;2023-04-06T06:29:41;17.80;;;11.85;;
39022;SDS011;25908;51.984;5.928;2023-04-06T06:32:07;18.70;;;12.52;;
39022;SDS011;25908;51.984;5.928;2023-04-06T06:34:36;17.20;;;11.98;;
39022;SDS011;25908;51.984;5.928;2023-04-06T06:37:01;21.02;;;12.00;;
39022;SDS011;25908;51.984;5.928;2023-04-06T06:39:27;21.35;;;12.73;;
39022;SDS011;25908;51.984;5.928;2023-04-06T06:41:53;19.50;;;12.68;;
39022;SDS011;25908;51.984;5.928;2023-04-06T06:44:21;19.00;;;12.07;;
39022;SDS011;25908;51.984;5.928;2023-04-06T06:46:47;16.63;;;11.57;;
39022;SDS011;25908;51.984;5.928;2023-04-06T06:49:13;20.00;;;12.73;;
39022;SDS011;25908;51.984;5.928;2023-04-06T06:51:39;21.55;;;12.98;;
39022;SDS011;25908;51.984;5.928;2023-04-06T06:54:05;21.40;;;12.32;;
39022;SDS011;25908;51.984;5.928;2023-04-06T06:56:31;21.48;;;13.48;;
39022;SDS011;25908;51.984;5.928;2023-04-06T06:58:56;20.52;;;12.63;;
39022;SDS011;25908;51.984;5.928;2023-04-06T07:01:22;19.33;;;12.43;;
39022;SDS011;25908;51.984;5.928;2023-04-06T07:03:47;21.42;;;13.13;;
39022;SDS011;25908;51.984;5.928;2023-04-06T07:06:13;21.00;;;12.88;;
39022;SDS011;25908;51.984;5.928;2023-04-06T07:08:38;24.58;;;13.68;;
39022;SDS011;25908;51.984;5.928;2023-04-06T07:11:04;21.27;;;12.65;;
39022;SDS011;25908;51.984;5.928;2023-04-06T07:13:29;20.50;;;13.30;;
39022;SDS011;25908;51.984;5.928;2023-04-06T07:15:55;20.60;;;12.93;;
39022;SDS011;25908;51.984;5.928;2023-04-06T07:18:21;21.95;;;13.85;;
39022;SDS011;25908;51.984;5.928;2023-04-06T07:20:47;21.75;;;13.13;;
39022;SDS011;25908;51.984;5.928;2023-04-06T07:23:13;20.58;;;13.00;;
39022;SDS011;25908;51.984;5.928;2023-04-06T07:25:38;21.55;;;12.95;;
39022;SDS011;25908;51.984;5.928;2023-04-06T07:28:04;19.15;;;12.68;;
39022;SDS011;25908;51.984;5.928;2023-04-06T07:30:30;20.33;;;12.68;;
39022;SDS011;25908;51.984;5.928;2023-04-06T07:32:55;23.65;;;13.73;;
39022;SDS011;25908;51.984;5.928;2023-04-06T07:35:25;21.33;;;12.50;;
39022;SDS011;25908;51.984;5.928;2023-04-06T07:37:51;19.42;;;13.20;;
39022;SDS011;25908;51.984;5.928;2023-04-06T07:40:17;23.30;;;13.77;;
39022;SDS011;25908;51.984;5.928;2023-04-06T07:42:44;21.98;;;13.57;;
39022;SDS011;25908;51.984;5.928;2023-04-06T07:45:10;23.95;;;14.20;;
39022;SDS011;25908;51.984;5.928;2023-04-06T07:47:36;24.60;;;14.50;;
39022;SDS011;25908;51.984;5.928;2023-04-06T07:50:01;24.58;;;14.80;;
39022;SDS011;25908;51.984;5.928;2023-04-06T07:52:27;21.00;;;13.60;;
39022;SDS011;25908;51.984;5.928;2023-04-06T07:54:53;23.17;;;15.85;;
39022;SDS011;25908;51.984;5.928;2023-04-06T07:57:18;20.52;;;14.48;;
39022;SDS011;25908;51.984;5.928;2023-04-06T07:59:44;22.25;;;14.65;;
39022;SDS011;25908;51.984;5.928;2023-04-06T08:02:09;22.20;;;13.73;;
39022;SDS011;25908;51.984;5.928;2023-04-06T08:04:35;21.20;;;14.32;;
39022;SDS011;25908;51.984;5.928;2023-04-06T08:07:01;21.60;;;14.30;;
39022;SDS011;25908;51.984;5.928;2023-04-06T08:09:27;21.77;;;13.30;;
39022;SDS011;25908;51.984;5.928;2023-04-06T08:11:52;24.35;;;12.65;;
39022;SDS011;25908;51.984;5.928;2023-04-06T08:14:18;22.77;;;12.93;;
39022;SDS011;25908;51.984;5.928;2023-04-06T08:16:44;22.95;;;14.18;;
39022;SDS011;25908;51.984;5.928;2023-04-06T08:19:10;21.33;;;14.27;;
39022;SDS011;25908;51.984;5.928;2023-04-06T08:21:36;22.13;;;14.13;;
39022;SDS011;25908;51.984;5.928;2023-04-06T08:24:02;21.73;;;14.05;;
39022;SDS011;25908;51.984;5.928;2023-04-06T08:26:28;20.20;;;13.60;;
39022;SDS011;25908;51.984;5.928;2023-04-06T08:28:53;22.52;;;13.68;;
39022;SDS011;25908;51.984;5.928;2023-04-06T08:31:19;22.75;;;13.68;;
39022;SDS011;25908;51.984;5.928;2023-04-06T08:33:45;20.05;;;13.15;;
39022;SDS011;25908;51.984;5.928;2023-04-06T08:36:11;21.42;;;13.35;;
39022;SDS011;25908;51.984;5.928;2023-04-06T08:38:38;20.88;;;13.00;;
39022;SDS011;25908;51.984;5.928;2023-04-06T08:41:10;19.15;;;12.68;;
39022;SDS011;25908;51.984;5.928;2023-04-06T08:43:48;21.40;;;13.07;;
39022;SDS011;25908;51.984;5.928;2023-04-06T08:46:17;21.17;;;11.77;;
39022;SDS011;25908;51.984;5.928;2023-04-06T08:48:43;17.45;;;11.70;;
39022;SDS011;25908;51.984;5.928;2023-04-06T08:51:09;21.10;;;12.35;;
39022;SDS011;25908;51.984;5.928;2023-04-06T08:53:35;18.50;;;11.95;;
39022;SDS011;25908;51.984;5.928;2023-04-06T08:56:01;20.40;;;11.90;;
39022;SDS011;25908;51.984;5.928;2023-04-06T08:58:28;17.85;;;12.13;;
39022;SDS011;25908;51.984;5.928;2023-04-06T09:00:57;19.85;;;12.82;;
39022;SDS011;25908;51.984;5.928;2023-04-06T09:03:23;19.67;;;13.20;;
39022;SDS011;25908;51.984;5.928;2023-04-06T09:05:50;18.50;;;12.82;;
39022;SDS011;25908;51.984;5.928;2023-04-06T09:08:16;19.23;;;12.07;;
39022;SDS011;25908;51.984;5.928;2023-04-06T09:10:42;19.73;;;11.77;;
39022;SDS011;25908;51.984;5.928;2023-04-06T09:13:08;18.85;;;12.32;;
39022;SDS011;25908;51.984;5.928;2023-04-06T09:15:34;18.27;;;12.02;;
39022;SDS011;25908;51.984;5.928;2023-04-06T09:18:00;19.75;;;12.50;;
39022;SDS011;25908;51.984;5.928;2023-04-06T09:20:26;17.95;;;11.88;;
39022;SDS011;25908;51.984;5.928;2023-04-06T09:22:53;20.80;;;13.00;;
39022;SDS011;25908;51.984;5.928;2023-04-06T09:25:20;21.77;;;13.93;;
39022;SDS011;25908;51.984;5.928;2023-04-06T09:27:48;19.00;;;13.57;;
39022;SDS011;25908;51.984;5.928;2023-04-06T09:30:23;20.05;;;14.00;;
39022;SDS011;25908;51.984;5.928;2023-04-06T09:32:50;21.73;;;13.30;;
39022;SDS011;25908;51.984;5.928;2023-04-06T09:35:17;20.05;;;13.07;;
39022;SDS011;25908;51.984;5.928;2023-04-06T09:37:45;21.15;;;13.07;;
39022;SDS011;25908;51.984;5.928;2023-04-06T09:40:12;19.00;;;13.48;;
39022;SDS011;25908;51.984;5.928;2023-04-06T09:42:40;22.17;;;13.57;;
39022;SDS011;25908;51.984;5.928;2023-04-06T09:45:07;22.52;;;15.75;;
39022;SDS011;25908;51.984;5.928;2023-04-06T09:47:32;21.55;;;14.38;;
39022;SDS011;25908;51.984;5.928;2023-04-06T09:50:01;21.27;;;13.70;;
39022;SDS011;25908;51.984;5.928;2023-04-06T09:52:31;26.02;;;17.33;;
39022;SDS011;25908;51.984;5.928;2023-04-06T09:54:59;22.30;;;15.18;;
39022;SDS011;25908;51.984;5.928;2023-04-06T10:00:40;22.00;;;13.60;;
39022;SDS011;25908;51.984;5.928;2023-04-06T10:06:10;21.25;;;14.40;;
39022;SDS011;25908;51.984;5.928;2023-04-06T10:08:37;19.40;;;13.50;;
39022;SDS011;25908;51.984;5.928;2023-04-06T10:11:08;20.63;;;14.73;;
39022;SDS011;25908;51.984;5.928;2023-04-06T10:13:34;21.00;;;13.13;;
39022;SDS011;25908;51.984;5.928;2023-04-06T10:16:00;20.38;;;14.00;;
39022;SDS011;25908;51.984;5.928;2023-04-06T10:18:26;20.02;;;14.35;;
39022;SDS011;25908;51.984;5.928;2023-04-06T10:21:04;23.40;;;14.52;;
39022;SDS011;25908;51.984;5.928;2023-04-06T10:26:12;24.45;;;15.23;;
39022;SDS011;25908;51.984;5.928;2023-04-06T10:28:40;22.92;;;14.13;;
39022;SDS011;25908;51.984;5.928;2023-04-06T10:31:06;25.00;;;14.82;;
39022;SDS011;25908;51.984;5.928;2023-04-06T10:33:32;22.13;;;14.18;;
39022;SDS011;25908;51.984;5.928;2023-04-06T10:35:58;21.33;;;11.88;;
39022;SDS011;25908;51.984;5.928;2023-04-06T10:38:38;17.15;;;12.18;;
39022;SDS011;25908;51.984;5.928;2023-04-06T10:41:05;21.90;;;13.40;;
39022;SDS011;25908;51.984;5.928;2023-04-06T10:43:36;18.27;;;12.75;;
39022;SDS011;25908;51.984;5.928;2023-04-06T10:46:03;19.10;;;13.43;;
39022;SDS011;25908;51.984;5.928;2023-04-06T10:49:08;22.75;;;13.68;;
39022;SDS011;25908;51.984;5.928;2023-04-06T10:51:28;17.73;;;11.95;;
39022;SDS011;25908;51.984;5.928;2023-04-06T10:53:54;21.55;;;12.98;;
39022;SDS011;25908;51.984;5.928;2023-04-06T10:56:24;19.02;;;12.00;;
39022;SDS011;25908;51.984;5.928;2023-04-06T10:58:53;21.00;;;12.57;;
39022;SDS011;25908;51.984;5.928;2023-04-06T11:01:23;22.10;;;12.90;;
39022;SDS011;25908;51.984;5.928;2023-04-06T11:03:52;19.13;;;11.68;;
39022;SDS011;25908;51.984;5.928;2023-04-06T11:06:19;20.42;;;12.63;;
39022;SDS011;25908;51.984;5.928;2023-04-06T11:08:46;17.75;;;12.00;;
39022;SDS011;25908;51.984;5.928;2023-04-06T11:11:12;15.02;;;11.13;;
39022;SDS011;25908;51.984;5.928;2023-04-06T11:13:50;17.30;;;12.35;;
39022;SDS011;25908;51.984;5.928;2023-04-06T11:16:18;19.45;;;11.75;;
39022;SDS011;25908;51.984;5.928;2023-04-06T11:18:51;18.08;;;11.68;;
39022;SDS011;25908;51.984;5.928;2023-04-06T11:21:18;18.67;;;11.70;;
39022;SDS011;25908;51.984;5.928;2023-04-06T11:23:45;19.50;;;12.52;;
39022;SDS011;25908;51.984;5.928;2023-04-06T11:26:13;20.60;;;12.55;;
39022;SDS011;25908;51.984;5.928;2023-04-06T11:28:40;15.98;;;10.88;;
39022;SDS011;25908;51.984;5.928;2023-04-06T11:31:08;15.40;;;11.02;;
39022;SDS011;25908;51.984;5.928;2023-04-06T11:33:38;13.50;;;10.80;;
39022;SDS011;25908;51.984;5.928;2023-04-06T11:36:04;15.27;;;11.20;;
39022;SDS011;25908;51.984;5.928;2023-04-06T11:38:31;15.70;;;10.50;;
39022;SDS011;25908;51.984;5.928;2023-04-06T11:40:56;17.77;;;11.60;;
39022;SDS011;25908;51.984;5.928;2023-04-06T11:43:26;14.10;;;10.70;;
39022;SDS011;25908;51.984;5.928;2023-04-06T11:46:02;15.88;;;10.52;;
39022;SDS011;25908;51.984;5.928;2023-04-06T11:48:29;14.18;;;9.82;;
39022;SDS011;25908;51.984;5.928;2023-04-06T11:50:58;15.00;;;10.13;;
39022;SDS011;25908;51.984;5.928;2023-04-06T11:53:26;16.92;;;10.48;;
39022;SDS011;25908;51.984;5.928;2023-04-06T11:55:53;12.05;;;8.70;;
39022;SDS011;25908;51.984;5.928;2023-04-06T11:58:18;12.45;;;9.00;;
39022;SDS011;25908;51.984;5.928;2023-04-06T12:00:44;12.32;;;9.10;;
39022;SDS011;25908;51.984;5.928;2023-04-06T12:03:11;13.75;;;9.27;;
39022;SDS011;25908;51.984;5.928;2023-04-06T12:05:37;12.45;;;8.57;;
39022;SDS011;25908;51.984;5.928;2023-04-06T12:08:02;12.85;;;8.30;;
39022;SDS011;25908;51.984;5.928;2023-04-06T12:10:28;12.65;;;8.85;;
39022;SDS011;25908;51.984;5.928;2023-04-06T12:12:54;13.38;;;9.07;;
39022;SDS011;25908;51.984;5.928;2023-04-06T12:15:20;15.30;;;9.02;;
39022;SDS011;25908;51.984;5.928;2023-04-06T12:17:45;11.65;;;7.68;;
39022;SDS011;25908;51.984;5.928;2023-04-06T12:20:11;14.10;;;8.40;;
39022;SDS011;25908;51.984;5.928;2023-04-06T12:22:36;12.05;;;8.55;;
39022;SDS011;25908;51.984;5.928;2023-04-06T12:25:02;15.30;;;8.57;;
39022;SDS011;25908;51.984;5.928;2023-04-06T12:27:28;11.95;;;8.63;;
39022;SDS011;25908;51.984;5.928;2023-04-06T12:29:53;12.57;;;8.90;;
39022;SDS011;25908;51.984;5.928;2023-04-06T12:32:20;11.38;;;7.95;;
39022;SDS011;25908;51.984;5.928;2023-04-06T12:34:46;13.27;;;9.00;;
39022;SDS011;25908;51.984;5.928;2023-04-06T12:37:11;12.13;;;8.20;;
39022;SDS011;25908;51.984;5.928;2023-04-06T12:39:37;11.82;;;8.23;;
39022;SDS011;25908;51.984;5.928;2023-04-06T12:42:03;12.80;;;8.77;;
39022;SDS011;25908;51.984;5.928;2023-04-06T12:44:29;13.32;;;8.23;;
39022;SDS011;25908;51.984;5.928;2023-04-06T12:46:55;13.25;;;8.75;;
39022;SDS011;25908;51.984;5.928;2023-04-06T12:49:21;10.43;;;7.28;;
39022;SDS011;25908;51.984;5.928;2023-04-06T12:51:46;8.88;;;6.35;;
39022;SDS011;25908;51.984;5.928;2023-04-06T12:54:12;9.75;;;6.00;;
39022;SDS011;25908;51.984;5.928;2023-04-06T12:56:38;8.25;;;6.05;;
39022;SDS011;25908;51.984;5.928;2023-04-06T12:59:03;8.07;;;5.63;;
39022;SDS011;25908;51.984;5.928;2023-04-06T13:01:30;9.45;;;5.93;;
39022;SDS011;25908;51.984;5.928;2023-04-06T13:03:56;9.00;;;6.07;;
39022;SDS011;25908;51.984;5.928;2023-04-06T13:06:22;8.10;;;5.50;;
39022;SDS011;25908;51.984;5.928;2023-04-06T13:08:52;7.80;;;5.40;;
39022;SDS011;25908;51.984;5.928;2023-04-06T13:11:18;8.45;;;5.75;;
39022;SDS011;25908;51.984;5.928;2023-04-06T13:13:45;8.73;;;5.93;;
39022;SDS011;25908;51.984;5.928;2023-04-06T13:16:11;7.95;;;5.45;;
39022;SDS011;25908;51.984;5.928;2023-04-06T13:18:36;8.32;;;5.20;;
39022;SDS011;25908;51.984;5.928;2023-04-06T13:21:03;9.05;;;5.95;;
39022;SDS011;25908;51.984;5.928;2023-04-06T13:23:30;10.70;;;5.72;;
39022;SDS011;25908;51.984;5.928;2023-04-06T13:25:59;8.88;;;5.72;;
39022;SDS011;25908;51.984;5.928;2023-04-06T13:28:32;10.75;;;6.53;;
39022;SDS011;25908;51.984;5.928;2023-04-06T13:31:00;9.18;;;6.10;;
39022;SDS011;25908;51.984;5.928;2023-04-06T13:33:27;8.75;;;5.53;;
39022;SDS011;25908;51.984;5.928;2023-04-06T13:35:53;6.93;;;4.95;;
39022;SDS011;25908;51.984;5.928;2023-04-06T13:38:18;10.73;;;6.38;;
39022;SDS011;25908;51.984;5.928;2023-04-06T13:40:44;10.38;;;6.93;;
39022;SDS011;25908;51.984;5.928;2023-04-06T13:43:10;9.02;;;6.18;;
39022;SDS011;25908;51.984;5.928;2023-04-06T13:45:36;12.35;;;7.57;;
39022;SDS011;25908;51.984;5.928;2023-04-06T13:48:02;9.60;;;6.80;;
39022;SDS011;25908;51.984;5.928;2023-04-06T13:50:28;11.75;;;6.70;;
39022;SDS011;25908;51.984;5.928;2023-04-06T13:52:55;10.40;;;6.65;;
39022;SDS011;25908;51.984;5.928;2023-04-06T13:55:21;15.75;;;8.52;;
39022;SDS011;25908;51.984;5.928;2023-04-06T13:57:49;10.38;;;7.15;;
39022;SDS011;25908;51.984;5.928;2023-04-06T14:00:15;14.30;;;8.27;;
39022;SDS011;25908;51.984;5.928;2023-04-06T14:02:41;13.15;;;8.15;;
39022;SDS011;25908;51.984;5.928;2023-04-06T14:05:06;11.02;;;7.78;;
39022;SDS011;25908;51.984;5.928;2023-04-06T14:07:32;11.30;;;7.13;;
39022;SDS011;25908;51.984;5.928;2023-04-06T14:09:58;11.73;;;7.82;;
39022;SDS011;25908;51.984;5.928;2023-04-06T14:12:23;12.90;;;7.93;;
39022;SDS011;25908;51.984;5.928;2023-04-06T14:14:49;11.30;;;7.90;;
39022;SDS011;25908;51.984;5.928;2023-04-06T14:17:15;11.38;;;8.18;;
39022;SDS011;25908;51.984;5.928;2023-04-06T14:19:41;10.27;;;7.28;;
39022;SDS011;25908;51.984;5.928;2023-04-06T14:22:06;11.88;;;7.65;;
39022;SDS011;25908;51.984;5.928;2023-04-06T14:24:33;11.25;;;7.80;;
39022;SDS011;25908;51.984;5.928;2023-04-06T14:27:00;13.85;;;8.55;;
39022;SDS011;25908;51.984;5.928;2023-04-06T14:29:27;11.38;;;8.00;;
39022;SDS011;25908;51.984;5.928;2023-04-06T14:31:53;13.23;;;8.65;;